createdAt,value
2018-06-16T00:00:12.786Z,61.77
2018-06-16T00:01:13.014Z,64.21
2018-06-16T00:02:13.225Z,64.45
2018-06-16T00:03:13.425Z,62.01
2018-06-16T00:04:13.617Z,62.01
2018-06-16T00:05:13.815Z,62.50
2018-06-16T00:06:14.023Z,62.99
2018-06-16T00:07:14.227Z,65.43
2018-06-16T00:08:14.437Z,60.30
2018-06-16T00:09:14.632Z,65.67
2018-06-16T00:10:14.827Z,62.26
2018-06-16T00:11:15.013Z,60.30
2018-06-16T00:12:15.216Z,62.01
2018-06-16T00:13:15.415Z,62.99
2018-06-16T00:14:15.621Z,64.70
2018-06-16T00:17:47.933Z,61.77
2018-06-16T00:18:48.127Z,60.30
2018-06-16T00:19:48.315Z,61.52
2018-06-16T00:20:48.522Z,60.55
2018-06-16T00:21:48.723Z,61.77
2018-06-16T00:22:48.949Z,65.43
2018-06-16T00:23:49.149Z,60.79
2018-06-16T00:24:49.359Z,66.65
2018-06-16T00:25:49.553Z,61.28
2018-06-16T00:26:49.761Z,60.79
2018-06-16T00:27:50.108Z,56.88
2018-06-16T00:28:50.172Z,58.11
2018-06-16T00:29:50.369Z,60.79
2018-06-16T00:30:50.558Z,62.99
2018-06-16T00:31:50.754Z,62.26
2018-06-16T00:32:50.959Z,59.81
2018-06-16T00:33:51.190Z,62.26
2018-06-16T00:34:51.448Z,61.04
2018-06-16T00:35:51.512Z,60.79
2018-06-16T00:36:51.724Z,63.72
2018-06-16T00:37:51.915Z,65.92
2018-06-16T00:38:52.100Z,62.01
2018-06-16T00:39:52.310Z,62.50
2018-06-16T00:40:52.526Z,62.01
2018-06-16T00:41:52.741Z,59.57
2018-06-16T00:42:52.950Z,58.59
2018-06-16T00:43:53.162Z,62.26
2018-06-16T00:44:53.347Z,62.26
2018-06-16T00:48:25.790Z,64.94
2018-06-16T00:49:25.865Z,60.55
2018-06-16T00:50:26.054Z,59.57
2018-06-16T00:51:26.248Z,63.23
2018-06-16T00:52:26.444Z,62.50
2018-06-16T00:53:26.654Z,62.99
2018-06-16T00:54:26.855Z,60.06
2018-06-16T00:55:27.050Z,59.57
2018-06-16T00:56:27.262Z,61.04
2018-06-16T00:57:27.465Z,63.96
2018-06-16T00:58:27.661Z,61.77
2018-06-16T00:59:27.866Z,61.04
2018-06-16T01:00:28.066Z,64.94
2018-06-16T01:01:28.276Z,62.50
2018-06-16T01:02:28.484Z,63.72
2018-06-16T01:03:28.699Z,61.52
2018-06-16T01:04:28.921Z,62.01
2018-06-16T01:05:29.102Z,61.28
2018-06-16T01:06:29.310Z,63.23
2018-06-16T01:07:29.514Z,60.30
2018-06-16T01:08:29.701Z,62.99
2018-06-16T01:09:29.890Z,62.50
2018-06-16T01:10:30.074Z,65.19
2018-06-16T01:11:30.259Z,61.52
2018-06-16T01:12:30.443Z,62.99
2018-06-16T01:13:30.631Z,62.50
2018-06-16T01:14:30.833Z,61.28
2018-06-16T01:15:31.048Z,64.21
2018-06-16T01:16:31.256Z,61.28
2018-06-16T01:17:31.443Z,56.40
2018-06-16T01:18:31.653Z,60.79
2018-06-16T01:19:31.854Z,59.33
2018-06-16T01:20:32.079Z,62.01
2018-06-16T01:21:32.281Z,58.11
2018-06-16T01:22:32.482Z,66.16
2018-06-16T01:23:32.666Z,62.74
2018-06-16T01:24:32.874Z,60.30
2018-06-16T01:25:33.071Z,59.33
2018-06-16T01:26:33.253Z,60.79
2018-06-16T01:27:33.461Z,62.74
2018-06-16T01:28:33.645Z,60.30
2018-06-16T01:29:33.854Z,60.55
2018-06-16T01:30:34.061Z,62.01
2018-06-16T01:31:34.245Z,62.74
2018-06-16T01:32:34.439Z,59.57
2018-06-16T01:33:34.636Z,60.06
2018-06-16T01:34:34.848Z,57.86
2018-06-16T01:35:35.036Z,61.28
2018-06-16T01:36:35.248Z,66.16
2018-06-16T01:37:35.455Z,58.35
2018-06-16T01:38:35.652Z,55.66
2018-06-16T01:39:35.856Z,58.35
2018-06-16T01:40:36.063Z,59.33
2018-06-16T01:41:36.274Z,62.01
2018-06-16T01:42:36.485Z,57.86
2018-06-16T01:43:36.693Z,59.81
2018-06-16T01:44:36.905Z,61.52
2018-06-16T01:45:37.111Z,61.77
2018-06-16T01:46:37.310Z,62.50
2018-06-16T01:47:37.516Z,59.81
2018-06-16T01:51:09.829Z,60.06
2018-06-16T01:52:10.038Z,60.79
2018-06-16T01:53:10.234Z,62.01
2018-06-16T01:54:10.421Z,58.35
2018-06-16T01:55:10.639Z,62.74
2018-06-16T01:56:10.819Z,64.70
2018-06-16T01:57:11.035Z,63.96
2018-06-16T01:58:11.229Z,61.77
2018-06-16T01:59:11.444Z,58.35
2018-06-16T02:00:11.652Z,62.50
2018-06-16T02:01:11.852Z,62.74
2018-06-16T02:02:12.025Z,59.81
2018-06-16T02:03:12.227Z,58.84
2018-06-16T02:04:12.431Z,59.08
2018-06-16T02:05:12.644Z,59.81
2018-06-16T02:06:12.838Z,59.81
2018-06-16T02:07:13.019Z,59.08
2018-06-16T02:08:13.237Z,60.06
2018-06-16T02:09:13.453Z,59.57
2018-06-16T02:10:13.708Z,60.06
2018-06-16T02:11:13.891Z,60.06
2018-06-16T02:12:14.089Z,62.26
2018-06-16T02:13:14.300Z,58.11
2018-06-16T02:14:14.508Z,64.70
2018-06-16T02:15:14.700Z,64.45
2018-06-16T02:16:14.898Z,62.50
2018-06-16T02:19:46.880Z,64.70
2018-06-16T02:20:47.085Z,67.38
2018-06-16T02:21:47.283Z,66.16
2018-06-16T02:22:47.612Z,62.01
2018-06-16T02:23:47.703Z,64.21
2018-06-16T02:24:47.887Z,64.45
2018-06-16T02:25:48.101Z,63.72
2018-06-16T02:26:48.295Z,64.45
2018-06-16T02:27:48.489Z,62.01
2018-06-16T02:28:48.699Z,64.21
2018-06-16T02:29:48.905Z,62.26
2018-06-16T02:30:49.115Z,60.79
2018-06-16T02:31:49.306Z,64.70
2018-06-16T02:32:49.492Z,67.63
2018-06-16T02:33:49.711Z,66.65
2018-06-16T02:34:49.908Z,67.14
2018-06-16T02:35:50.112Z,67.63
2018-06-16T02:36:50.305Z,66.41
2018-06-16T02:37:50.495Z,68.36
2018-06-16T02:38:50.685Z,64.21
2018-06-16T02:39:50.897Z,62.50
2018-06-16T02:40:51.089Z,66.65
2018-06-16T02:41:51.289Z,64.70
2018-06-16T02:42:51.493Z,62.99
2018-06-16T02:43:51.702Z,62.01
2018-06-16T02:44:52.041Z,63.23
2018-06-16T02:45:52.118Z,62.26
2018-06-16T02:46:52.314Z,63.72
2018-06-16T02:47:52.494Z,63.23
2018-06-16T02:48:52.701Z,61.77
2018-06-16T02:49:52.912Z,66.16
2018-06-16T02:50:53.105Z,63.23
2018-06-16T02:51:53.373Z,62.26
2018-06-16T02:52:53.448Z,60.79
2018-06-16T02:53:53.629Z,64.21
2018-06-16T02:57:25.989Z,62.01
2018-06-16T02:58:26.175Z,63.96
2018-06-16T02:59:26.396Z,62.99
2018-06-16T03:00:26.589Z,62.99
2018-06-16T03:01:26.778Z,63.48
2018-06-16T03:02:26.983Z,61.28
2018-06-16T03:03:27.193Z,64.94
2018-06-16T03:04:27.424Z,62.99
2018-06-16T03:05:27.622Z,64.70
2018-06-16T03:06:27.826Z,66.41
2018-06-16T03:07:28.012Z,62.26
2018-06-16T03:08:28.202Z,62.74
2018-06-16T03:09:28.410Z,63.23
2018-06-16T03:10:28.625Z,61.77
2018-06-16T03:11:28.816Z,60.79
2018-06-16T03:12:29.007Z,64.21
2018-06-16T03:13:29.192Z,62.99
2018-06-16T03:14:29.398Z,63.96
2018-06-16T03:15:29.601Z,62.50
2018-06-16T03:16:29.809Z,60.30
2018-06-16T03:17:30.021Z,60.30
2018-06-16T03:18:30.233Z,60.55
2018-06-16T03:19:30.428Z,62.99
2018-06-16T03:20:30.628Z,60.06
2018-06-16T03:21:30.825Z,62.50
2018-06-16T03:22:31.037Z,66.16
2018-06-16T03:23:31.275Z,64.70
2018-06-16T03:24:31.397Z,66.65
2018-06-16T03:25:31.588Z,62.99
2018-06-16T03:26:31.844Z,64.70
2018-06-16T03:27:32.034Z,65.19
2018-06-16T03:28:32.243Z,63.48
2018-06-16T03:29:32.436Z,63.48
2018-06-16T03:30:32.629Z,62.74
2018-06-16T03:31:32.815Z,60.06
2018-06-16T03:32:33.016Z,60.55
2018-06-16T03:33:33.212Z,63.23
2018-06-16T03:34:33.414Z,65.92
2018-06-16T03:35:33.618Z,62.01
2018-06-16T03:36:33.808Z,63.96
2018-06-16T03:37:33.999Z,62.99
2018-06-16T03:41:06.384Z,62.99
2018-06-16T03:42:06.576Z,64.94
2018-06-16T03:43:06.766Z,65.43
2018-06-16T03:44:06.978Z,63.96
2018-06-16T03:45:07.171Z,60.55
2018-06-16T03:46:07.378Z,62.50
2018-06-16T03:47:07.565Z,61.52
2018-06-16T03:50:39.818Z,63.23
2018-06-16T03:51:40.012Z,60.06
2018-06-16T03:52:40.204Z,58.84
2018-06-16T03:53:40.404Z,65.92
2018-06-16T03:54:40.622Z,62.26
2018-06-16T03:55:40.833Z,61.52
2018-06-16T03:56:41.043Z,66.41
2018-06-16T03:57:41.227Z,63.96
2018-06-16T03:58:41.435Z,64.21
2018-06-16T03:59:41.617Z,66.65
2018-06-16T04:00:41.938Z,61.77
2018-06-16T04:01:42.006Z,64.70
2018-06-16T04:02:42.217Z,62.26
2018-06-16T04:03:42.402Z,61.52
2018-06-16T04:04:42.585Z,61.77
2018-06-16T04:05:42.815Z,63.72
2018-06-16T04:06:43.011Z,62.74
2018-06-16T04:07:43.209Z,58.59
2018-06-16T04:08:43.406Z,63.23
2018-06-16T04:09:43.596Z,59.57
2018-06-16T04:10:43.775Z,62.50
2018-06-16T04:11:43.983Z,63.72
2018-06-16T04:12:44.175Z,60.79
2018-06-16T04:13:44.378Z,62.74
2018-06-16T04:14:44.562Z,61.52
2018-06-16T04:15:44.748Z,63.48
2018-06-16T04:16:44.978Z,62.50
2018-06-16T04:17:45.147Z,61.52
2018-06-16T04:18:45.333Z,61.77
2018-06-16T04:19:45.545Z,60.79
2018-06-16T04:20:45.732Z,59.33
2018-06-16T04:21:45.998Z,64.70
2018-06-16T04:22:46.080Z,63.23
2018-06-16T04:23:46.287Z,61.28
2018-06-16T04:24:46.493Z,60.30
2018-06-16T04:25:46.691Z,62.01
2018-06-16T04:26:46.908Z,60.79
2018-06-16T04:27:47.101Z,61.52
2018-06-16T04:28:47.297Z,59.33
2018-06-16T04:29:47.505Z,61.04
2018-06-16T04:33:19.816Z,64.45
2018-06-16T04:34:20.021Z,61.77
2018-06-16T04:35:20.225Z,60.79
2018-06-16T04:36:20.419Z,58.84
2018-06-16T04:37:20.615Z,62.01
2018-06-16T04:38:20.821Z,61.28
2018-06-16T04:39:21.002Z,60.30
2018-06-16T04:40:21.192Z,60.55
2018-06-16T04:41:21.392Z,62.99
2018-06-16T04:44:53.863Z,62.50
2018-06-16T04:45:53.968Z,62.50
2018-06-16T04:46:54.120Z,63.96
2018-06-16T04:47:54.304Z,63.72
2018-06-16T04:48:54.518Z,64.21
2018-06-16T04:49:54.719Z,58.84
2018-06-16T04:50:54.905Z,62.74
2018-06-16T04:51:55.118Z,61.28
2018-06-16T04:52:55.331Z,62.74
2018-06-16T04:53:55.516Z,61.04
2018-06-16T04:54:55.729Z,62.74
2018-06-16T04:55:55.996Z,62.99
2018-06-16T04:56:56.102Z,60.06
2018-06-16T04:57:56.261Z,62.99
2018-06-16T04:58:56.474Z,61.52
2018-06-16T04:59:56.671Z,61.04
2018-06-16T05:00:56.881Z,63.48
2018-06-16T05:01:57.076Z,66.16
2018-06-16T05:02:57.299Z,59.08
2018-06-16T05:03:57.501Z,57.37
2018-06-16T05:04:57.715Z,60.55
2018-06-16T05:05:57.907Z,66.65
2018-06-16T05:06:58.121Z,61.52
2018-06-16T05:07:58.329Z,67.38
2018-06-16T05:08:58.520Z,61.77
2018-06-16T05:09:58.709Z,60.79
2018-06-16T05:10:58.900Z,58.35
2018-06-16T05:11:59.116Z,61.28
2018-06-16T05:12:59.328Z,62.01
2018-06-16T05:13:59.629Z,68.36
2018-06-16T05:14:59.686Z,62.50
2018-06-16T05:15:59.909Z,62.50
2018-06-16T05:17:00.134Z,65.43
2018-06-16T05:18:00.316Z,59.81
2018-06-16T05:19:00.512Z,64.70
2018-06-16T05:20:00.702Z,60.30
2018-06-16T05:21:00.916Z,57.86
2018-06-16T05:22:01.131Z,61.52
2018-06-16T05:23:01.327Z,59.57
2018-06-16T05:24:01.516Z,62.01
2018-06-16T05:25:01.714Z,62.99
2018-06-16T05:26:01.933Z,65.92
2018-06-16T05:27:02.116Z,67.14
2018-06-16T05:28:02.450Z,64.70
2018-06-16T05:29:02.528Z,62.50
2018-06-16T05:30:02.721Z,62.01
2018-06-16T05:31:02.911Z,62.99
2018-06-16T05:32:03.123Z,63.23
2018-06-16T05:33:03.342Z,61.04
2018-06-16T05:34:03.535Z,60.30
2018-06-16T05:35:03.758Z,65.19
2018-06-16T05:36:03.975Z,60.79
2018-06-16T05:37:04.189Z,61.77
2018-06-16T05:38:04.406Z,62.99
2018-06-16T05:39:04.598Z,60.30
2018-06-16T05:40:04.807Z,63.23
2018-06-16T05:41:05.002Z,58.11
2018-06-16T05:42:05.205Z,63.23
2018-06-16T05:43:05.414Z,62.50
2018-06-16T05:44:05.611Z,61.28
2018-06-16T05:45:05.815Z,61.77
2018-06-16T05:46:06.024Z,59.57
2018-06-16T05:47:06.216Z,62.01
2018-06-16T05:48:06.438Z,62.99
2018-06-16T05:49:06.624Z,63.96
2018-06-16T05:50:06.839Z,61.04
2018-06-16T05:51:07.053Z,66.16
2018-06-16T05:52:07.258Z,64.45
2018-06-16T05:53:07.453Z,64.21
2018-06-16T05:54:07.655Z,67.63
2018-06-16T05:55:07.867Z,62.50
2018-06-16T05:56:08.066Z,64.70
2018-06-16T05:57:08.260Z,62.50
2018-06-16T05:58:08.470Z,62.01
2018-06-16T05:59:08.686Z,63.72
2018-06-16T06:00:08.869Z,62.74
2018-06-16T06:01:09.065Z,61.52
2018-06-16T06:02:09.260Z,60.55
2018-06-16T06:03:09.464Z,62.01
2018-06-16T06:04:09.654Z,64.21
2018-06-16T06:05:09.870Z,61.04
2018-06-16T06:06:10.070Z,61.52
2018-06-16T06:07:10.255Z,58.84
2018-06-16T06:08:10.531Z,64.45
2018-06-16T06:09:10.616Z,60.55
2018-06-16T06:10:10.872Z,64.94
2018-06-16T06:11:11.048Z,61.77
2018-06-16T06:12:11.248Z,63.23
2018-06-16T06:13:11.431Z,61.52
2018-06-16T06:14:11.641Z,62.74
2018-06-16T06:15:11.846Z,61.77
2018-06-16T06:16:12.058Z,61.52
2018-06-16T06:17:12.258Z,61.28
2018-06-16T06:18:12.466Z,63.96
2018-06-16T06:19:12.673Z,61.04
2018-06-16T06:20:12.860Z,61.28
2018-06-16T06:21:13.076Z,60.55
2018-06-16T06:22:13.281Z,63.96
2018-06-16T06:23:13.568Z,66.65
2018-06-16T06:24:13.637Z,60.30
2018-06-16T06:25:13.845Z,60.30
2018-06-16T06:26:14.035Z,63.96
2018-06-16T06:27:14.238Z,61.28
2018-06-16T06:28:14.426Z,64.21
2018-06-16T06:31:46.737Z,66.65
2018-06-16T06:32:46.945Z,61.52
2018-06-16T06:33:47.156Z,60.55
2018-06-16T06:34:47.375Z,61.52
2018-06-16T06:35:47.585Z,62.26
2018-06-16T06:36:47.815Z,62.01
2018-06-16T06:37:48.026Z,62.50
2018-06-16T06:38:48.249Z,62.50
2018-06-16T06:39:48.406Z,63.23
2018-06-16T06:40:48.601Z,62.01
2018-06-16T06:41:48.809Z,61.04
2018-06-16T06:42:49.020Z,66.41
2018-06-16T06:43:49.256Z,62.74
2018-06-16T06:44:49.457Z,63.48
2018-06-16T06:45:49.655Z,64.45
2018-06-16T06:49:21.957Z,60.06
2018-06-16T06:50:22.141Z,62.50
2018-06-16T06:51:22.348Z,61.52
2018-06-16T06:52:22.557Z,62.50
2018-06-16T06:53:22.764Z,60.06
2018-06-16T06:54:22.956Z,61.77
2018-06-16T06:55:23.178Z,63.23
2018-06-16T06:56:23.389Z,65.67
2018-06-16T06:57:23.730Z,62.99
2018-06-16T06:58:23.795Z,61.52
2018-06-16T06:59:24.034Z,61.04
2018-06-16T07:00:24.222Z,61.77
2018-06-16T07:01:24.486Z,60.06
2018-06-16T07:02:24.640Z,60.55
2018-06-16T07:03:24.841Z,60.30
2018-06-16T07:04:25.055Z,60.06
2018-06-16T07:05:25.264Z,59.81
2018-06-16T07:06:25.465Z,62.26
2018-06-16T07:07:25.683Z,62.01
2018-06-16T07:10:58.163Z,62.74
2018-06-16T07:11:58.307Z,61.04
2018-06-16T07:12:58.522Z,63.23
2018-06-16T07:13:58.743Z,61.04
2018-06-16T07:14:58.949Z,62.01
2018-06-16T07:15:59.171Z,64.70
2018-06-16T07:16:59.381Z,61.52
2018-06-16T07:17:59.572Z,62.74
2018-06-16T07:18:59.771Z,65.43
2018-06-16T07:19:59.978Z,61.77
2018-06-16T07:21:00.177Z,62.01
2018-06-16T07:22:00.386Z,61.52
2018-06-16T07:23:00.580Z,61.04
2018-06-16T07:24:00.774Z,59.81
2018-06-16T07:25:00.967Z,61.52
2018-06-16T07:26:01.168Z,60.55
2018-06-16T07:27:01.406Z,63.96
2018-06-16T07:28:01.588Z,61.52
2018-06-16T07:29:01.799Z,60.79
2018-06-16T07:30:02.027Z,60.79
2018-06-16T07:31:02.257Z,60.55
2018-06-16T07:32:02.427Z,61.04
2018-06-16T07:33:02.638Z,60.79
2018-06-16T07:34:02.911Z,62.01
2018-06-16T07:35:03.047Z,62.26
2018-06-16T07:36:03.309Z,61.04
2018-06-16T07:37:03.447Z,63.23
2018-06-16T07:38:03.677Z,62.99
2018-06-16T07:39:03.865Z,63.23
2018-06-16T07:40:04.070Z,61.04
2018-06-16T07:41:04.279Z,62.50
2018-06-16T07:44:36.805Z,61.52
2018-06-16T07:45:37.023Z,69.82
2018-06-16T07:46:37.244Z,62.74
2018-06-16T07:47:37.474Z,63.23
2018-06-16T07:48:37.662Z,59.81
2018-06-16T07:49:37.856Z,60.30
2018-06-16T07:50:38.048Z,62.50
2018-06-16T07:51:38.268Z,59.81
2018-06-16T07:52:38.462Z,60.06
2018-06-16T07:53:38.648Z,61.04
2018-06-16T07:54:38.871Z,61.77
2018-06-16T07:58:11.422Z,67.38
2018-06-16T07:59:11.639Z,61.28
2018-06-16T08:00:11.845Z,61.28
2018-06-16T08:01:12.043Z,60.06
2018-06-16T08:02:12.257Z,62.50
2018-06-16T08:03:12.451Z,59.81
2018-06-16T08:04:12.649Z,59.33
2018-06-16T08:05:12.844Z,60.06
2018-06-16T08:06:13.057Z,61.04
2018-06-16T08:07:13.272Z,60.55
2018-06-16T08:08:13.480Z,62.50
2018-06-16T08:09:13.698Z,61.52
2018-06-16T08:10:13.892Z,64.21
2018-06-16T08:13:46.369Z,63.23
2018-06-16T08:14:46.551Z,60.30
2018-06-16T08:15:46.755Z,61.28
2018-06-16T08:16:46.950Z,62.01
2018-06-16T08:17:47.168Z,62.50
2018-06-16T08:18:47.358Z,60.30
2018-06-16T08:19:47.575Z,60.06
2018-06-16T08:20:47.781Z,61.77
2018-06-16T08:21:47.979Z,61.28
2018-06-16T08:22:48.177Z,60.55
2018-06-16T08:23:48.378Z,62.26
2018-06-16T08:24:48.586Z,61.52
2018-06-16T08:25:48.784Z,61.04
2018-06-16T08:26:49.016Z,61.04
2018-06-16T08:27:49.221Z,61.77
2018-06-16T08:28:49.449Z,65.92
2018-06-16T08:29:49.667Z,61.28
2018-06-16T08:30:49.877Z,63.23
2018-06-16T08:31:50.095Z,63.23
2018-06-16T08:35:22.589Z,61.04
2018-06-16T08:36:22.788Z,63.48
2018-06-16T08:37:22.998Z,62.26
2018-06-16T08:38:23.198Z,62.50
2018-06-16T08:39:23.417Z,60.79
2018-06-16T08:40:23.636Z,60.30
2018-06-16T08:41:23.842Z,62.99
2018-06-16T08:42:24.072Z,62.50
2018-06-16T08:43:24.301Z,60.06
2018-06-16T08:44:24.491Z,60.79
2018-06-16T08:45:24.683Z,60.79
2018-06-16T08:46:24.909Z,64.94
2018-06-16T08:47:25.113Z,60.55
2018-06-16T08:48:25.325Z,60.55
2018-06-16T08:51:57.697Z,59.57
2018-06-16T08:52:57.899Z,60.55
2018-06-16T08:53:58.106Z,61.28
2018-06-16T08:54:58.303Z,61.77
2018-06-16T08:55:58.499Z,62.99
2018-06-16T08:56:58.704Z,62.01
2018-06-16T08:57:58.898Z,66.65
2018-06-16T08:58:59.119Z,63.72
2018-06-16T08:59:59.336Z,63.23
2018-06-16T09:00:59.559Z,61.52
2018-06-16T09:01:59.773Z,65.92
2018-06-16T09:03:00.044Z,60.55
2018-06-16T09:04:00.182Z,63.72
2018-06-16T09:05:00.383Z,64.21
2018-06-16T09:06:00.590Z,61.77
2018-06-16T09:09:32.697Z,62.50
2018-06-16T09:10:32.920Z,66.16
2018-06-16T09:11:33.203Z,62.99
2018-06-16T09:12:33.347Z,74.95
2018-06-16T09:13:33.554Z,80.08
2018-06-16T09:14:33.763Z,65.67
2018-06-16T09:15:34.008Z,68.85
2018-06-16T09:16:34.210Z,66.65
2018-06-16T09:17:34.426Z,70.80
2018-06-16T09:18:34.631Z,66.89
2018-06-16T09:19:34.819Z,73.49
2018-06-16T09:20:35.030Z,65.67
2018-06-16T09:21:35.235Z,72.51
2018-06-16T09:22:35.491Z,65.67
2018-06-16T09:23:35.666Z,67.63
2018-06-16T09:24:35.878Z,68.36
2018-06-16T09:25:36.102Z,66.89
2018-06-16T09:26:36.332Z,67.14
2018-06-16T09:27:36.542Z,58.59
2018-06-16T09:28:36.733Z,66.65
2018-06-16T09:29:36.943Z,65.19
2018-06-16T09:30:37.137Z,65.92
2018-06-16T09:31:37.359Z,68.60
2018-06-16T09:32:37.551Z,64.70
2018-06-16T09:33:37.755Z,66.65
2018-06-16T09:34:37.983Z,66.65
2018-06-16T09:35:38.200Z,66.65
2018-06-16T09:36:38.422Z,66.41
2018-06-16T09:37:38.626Z,66.16
2018-06-16T09:38:38.836Z,72.02
2018-06-16T09:39:39.046Z,59.81
2018-06-16T09:40:39.292Z,61.52
2018-06-16T09:41:39.433Z,60.30
2018-06-16T09:42:39.645Z,58.84
2018-06-16T09:43:39.871Z,59.08
2018-06-16T09:44:40.092Z,59.57
2018-06-16T09:45:40.292Z,58.59
2018-06-16T09:46:40.513Z,59.33
2018-06-16T09:47:40.730Z,62.50
2018-06-16T09:48:40.942Z,66.65
2018-06-16T09:49:41.140Z,59.57
2018-06-16T09:50:41.332Z,63.48
2018-06-16T09:51:41.525Z,65.67
2018-06-16T09:55:13.877Z,67.38
2018-06-16T09:56:14.074Z,67.63
2018-06-16T09:57:14.295Z,64.21
2018-06-16T09:58:14.517Z,66.65
2018-06-16T09:59:14.718Z,67.63
2018-06-16T10:00:14.938Z,67.38
2018-06-16T10:01:15.147Z,67.38
2018-06-16T10:02:15.338Z,66.65
2018-06-16T10:03:15.613Z,65.43
2018-06-16T10:04:15.779Z,67.38
2018-06-16T10:05:16.013Z,68.36
2018-06-16T10:06:16.245Z,67.63
2018-06-16T10:07:16.471Z,67.14
2018-06-16T10:08:16.664Z,63.72
2018-06-16T10:09:16.875Z,59.57
2018-06-16T10:10:17.076Z,68.12
2018-06-16T10:11:17.289Z,68.85
2018-06-16T10:12:17.495Z,57.13
2018-06-16T10:13:17.714Z,60.55
2018-06-16T10:14:17.940Z,58.35
2018-06-16T10:15:18.204Z,60.79
2018-06-16T10:18:50.105Z,63.23
2018-06-16T10:19:50.313Z,65.43
2018-06-16T10:20:50.529Z,74.95
2018-06-16T10:21:50.728Z,81.54
2018-06-16T10:22:50.946Z,75.68
2018-06-16T10:23:51.152Z,75.93
2018-06-16T10:24:51.367Z,81.54
2018-06-16T10:25:51.572Z,73.00
2018-06-16T10:26:51.786Z,64.45
2018-06-16T10:27:51.992Z,66.89
2018-06-16T10:28:52.201Z,64.21
2018-06-16T10:29:52.408Z,57.86
2018-06-16T10:30:52.621Z,78.86
2018-06-16T10:31:52.824Z,78.13
2018-06-16T10:32:53.030Z,77.39
2018-06-16T10:33:53.236Z,78.37
2018-06-16T10:34:53.464Z,82.28
2018-06-16T10:35:53.681Z,84.47
2018-06-16T10:36:53.887Z,76.66
2018-06-16T10:37:54.112Z,70.07
2018-06-16T10:38:54.343Z,72.02
2018-06-16T10:39:54.567Z,61.52
2018-06-16T10:40:54.800Z,63.72
2018-06-16T10:41:55.006Z,62.99
2018-06-16T10:42:55.228Z,63.48
2018-06-16T10:43:55.442Z,69.09
2018-06-16T10:44:55.650Z,63.72
2018-06-16T10:45:55.871Z,75.93
2018-06-16T10:49:28.240Z,78.13
2018-06-16T10:53:00.799Z,68.60
2018-06-16T10:54:00.993Z,68.85
2018-06-16T10:55:01.201Z,62.74
2018-06-16T10:56:01.398Z,62.50
2018-06-16T10:57:01.612Z,64.21
2018-06-16T10:58:01.836Z,62.50
2018-06-16T10:59:02.066Z,62.01
2018-06-16T11:00:02.261Z,63.48
2018-06-16T11:01:02.466Z,79.59
2018-06-16T11:02:02.684Z,79.35
2018-06-16T11:03:02.903Z,79.35
2018-06-16T11:04:03.092Z,77.64
2018-06-16T11:05:03.336Z,79.59
2018-06-16T11:06:03.564Z,77.88
2018-06-16T11:07:03.756Z,83.01
2018-06-16T11:08:03.962Z,83.74
2018-06-16T11:09:04.198Z,73.73
2018-06-16T11:10:04.391Z,61.04
2018-06-16T11:11:04.606Z,61.77
2018-06-16T11:12:04.832Z,62.99
2018-06-16T11:13:05.046Z,63.23
2018-06-16T11:14:05.261Z,71.29
2018-06-16T11:15:05.465Z,64.45
2018-06-16T11:16:05.664Z,63.23
2018-06-16T11:17:05.864Z,62.01
2018-06-16T11:18:06.057Z,82.03
2018-06-16T11:19:06.329Z,77.64
2018-06-16T11:20:06.485Z,77.15
2018-06-16T11:21:06.688Z,76.17
2018-06-16T11:22:06.885Z,62.74
2018-06-16T11:23:07.096Z,69.58
2018-06-16T11:24:07.314Z,67.38
2018-06-16T11:25:07.533Z,58.59
2018-06-16T11:26:07.754Z,64.94
2018-06-16T11:27:07.959Z,62.99
2018-06-16T11:28:08.180Z,62.99
2018-06-16T11:31:40.541Z,62.01
2018-06-16T11:32:40.748Z,64.70
2018-06-16T11:33:40.975Z,68.12
2018-06-16T11:34:41.227Z,61.28
2018-06-16T11:35:41.379Z,66.16
2018-06-16T11:36:41.580Z,64.94
2018-06-16T11:37:41.786Z,60.30
2018-06-16T11:38:42.008Z,67.14
2018-06-16T11:39:42.259Z,70.80
2018-06-16T11:40:42.495Z,61.52
2018-06-16T11:41:42.692Z,58.84
2018-06-16T11:42:42.903Z,59.57
2018-06-16T11:43:43.105Z,61.77
2018-06-16T11:44:43.324Z,59.57
2018-06-16T11:45:43.554Z,59.81
2018-06-16T11:46:43.761Z,60.55
2018-06-16T11:47:44.019Z,58.35
2018-06-16T11:48:44.165Z,59.33
2018-06-16T11:49:44.307Z,59.08
2018-06-16T11:50:44.507Z,62.01
2018-06-16T11:51:44.723Z,63.23
2018-06-16T11:52:44.927Z,62.74
2018-06-16T11:53:45.147Z,57.86
2018-06-16T11:54:45.344Z,64.21
2018-06-16T11:55:45.565Z,62.01
2018-06-16T11:56:45.769Z,62.26
2018-06-16T11:57:45.985Z,61.52
2018-06-16T11:58:46.254Z,60.55
2018-06-16T11:59:46.349Z,63.72
2018-06-16T12:00:46.549Z,70.80
2018-06-16T12:01:46.787Z,62.99
2018-06-16T12:02:46.939Z,62.74
2018-06-16T12:03:47.137Z,62.50
2018-06-16T12:04:47.360Z,72.51
2018-06-16T12:05:47.572Z,73.73
2018-06-16T12:06:47.782Z,64.70
2018-06-16T12:07:47.974Z,62.50
2018-06-16T12:08:48.184Z,61.04
2018-06-16T12:09:48.387Z,61.77
2018-06-16T12:10:48.572Z,63.23
2018-06-16T12:11:48.779Z,64.70
2018-06-16T12:12:48.973Z,65.19
2018-06-16T12:13:49.170Z,63.23
2018-06-16T12:14:49.389Z,65.19
2018-06-16T12:15:49.607Z,63.72
2018-06-16T12:16:49.810Z,65.19
2018-06-16T12:17:50.025Z,62.74
2018-06-16T12:18:50.212Z,61.04
2018-06-16T12:19:50.447Z,60.30
2018-06-16T12:20:50.648Z,65.19
2018-06-16T12:21:50.847Z,60.55
2018-06-16T12:22:51.048Z,63.23
2018-06-16T12:23:51.268Z,61.04
2018-06-16T12:24:51.477Z,61.04
2018-06-16T12:25:51.678Z,62.99
2018-06-16T12:26:51.889Z,62.50
2018-06-16T12:27:52.133Z,65.43
2018-06-16T12:28:52.326Z,62.50
2018-06-16T12:29:52.537Z,67.87
2018-06-16T12:30:52.736Z,63.96
2018-06-16T12:31:52.943Z,62.26
2018-06-16T12:32:53.150Z,61.77
2018-06-16T12:33:53.375Z,66.65
2018-06-16T12:34:53.563Z,68.12
2018-06-16T12:35:53.848Z,64.94
2018-06-16T12:36:53.945Z,68.85
2018-06-16T12:37:54.153Z,64.70
2018-06-16T12:38:54.348Z,65.67
2018-06-16T12:39:54.546Z,71.53
2018-06-16T12:40:54.765Z,62.01
2018-06-16T12:41:54.966Z,64.45
2018-06-16T12:42:55.167Z,62.50
2018-06-16T12:43:55.371Z,61.28
2018-06-16T12:44:55.570Z,67.87
2018-06-16T12:45:55.771Z,66.41
2018-06-16T12:46:55.971Z,66.65
2018-06-16T12:47:56.189Z,66.89
2018-06-16T12:51:28.535Z,69.34
2018-06-16T12:52:28.742Z,67.38
2018-06-16T12:53:28.962Z,67.38
2018-06-16T12:54:29.184Z,60.55
2018-06-16T12:55:29.386Z,61.04
2018-06-16T12:56:29.686Z,66.65
2018-06-16T12:57:29.817Z,73.24
2018-06-16T12:58:30.018Z,71.29
2018-06-16T12:59:30.217Z,67.14
2018-06-16T13:00:30.414Z,69.58
2018-06-16T13:01:30.617Z,65.92
2018-06-16T13:02:30.803Z,65.67
2018-06-16T13:03:31.010Z,68.12
2018-06-16T13:07:04.109Z,66.16
2018-06-16T13:08:04.303Z,65.19
2018-06-16T13:09:04.500Z,65.67
2018-06-16T13:10:04.700Z,60.79
2018-06-16T13:11:04.934Z,63.72
2018-06-16T13:12:05.135Z,60.55
2018-06-16T13:13:05.357Z,60.06
2018-06-16T13:14:05.557Z,60.06
2018-06-16T13:15:05.748Z,61.04
2018-06-16T13:16:05.970Z,65.19
2018-06-16T13:17:06.176Z,61.04
2018-06-16T13:18:06.384Z,63.48
2018-06-16T13:19:06.587Z,62.26
2018-06-16T13:20:06.807Z,58.59
2018-06-16T13:21:07.034Z,59.33
2018-06-16T13:22:07.225Z,58.59
2018-06-16T13:23:07.432Z,58.59
2018-06-16T13:24:07.697Z,67.87
2018-06-16T13:25:07.901Z,57.37
2018-06-16T13:26:08.115Z,62.99
2018-06-16T13:27:08.329Z,66.16
2018-06-16T13:28:08.521Z,58.11
2018-06-16T13:29:08.757Z,59.81
2018-06-16T13:30:08.949Z,56.64
2018-06-16T13:31:09.141Z,58.35
2018-06-16T13:32:09.377Z,57.37
2018-06-16T13:33:09.593Z,62.26
2018-06-16T13:34:09.811Z,69.34
2018-06-16T13:35:10.016Z,58.11
2018-06-16T13:36:10.206Z,58.35
2018-06-16T13:37:10.432Z,61.52
2018-06-16T13:38:10.625Z,65.43
2018-06-16T13:39:10.821Z,62.50
2018-06-16T13:40:11.039Z,59.81
2018-06-16T13:41:11.256Z,59.33
2018-06-16T13:42:11.463Z,62.50
2018-06-16T13:43:11.686Z,61.77
2018-06-16T13:44:11.866Z,62.01
2018-06-16T13:45:12.074Z,61.77
2018-06-16T13:46:12.259Z,65.67
2018-06-16T13:47:12.458Z,60.30
2018-06-16T13:48:12.675Z,59.33
2018-06-16T13:49:12.891Z,61.04
2018-06-16T13:50:13.095Z,60.30
2018-06-16T13:51:13.282Z,62.01
2018-06-16T13:52:13.488Z,62.01
2018-06-16T13:53:13.706Z,61.52
2018-06-16T13:54:13.996Z,67.87
2018-06-16T13:55:14.075Z,75.20
2018-06-16T13:56:14.275Z,62.74
2018-06-16T13:57:14.470Z,60.06
2018-06-16T13:58:14.677Z,60.79